Time;durP1;ratioP1;P1;durP2;ratioP2;P2;SDS_P1;SDS_P2;PMS_P1;PMS_P2;Temp;Humidity;BMP_temperature;BMP_pressure;BME280_temperature;BME280_humidity;BME280_pressure;Samples;Min_cycle;Max_cycle;Signal;HPM_P1;HPM_P2
2022/06/02 00:01:33;;;;;;;7.97;4.80;;;;;;;13.06;100.00;95567.31;5025582;28;20503;-74
2022/06/02 00:04:18;;;;;;;5.70;4.40;;;;;;;13.11;100.00;95569.91;5030541;28;20539;-74
2022/06/02 00:07:04;;;;;;;6.25;3.80;;;;;;;13.13;100.00;95573.06;5026133;28;20297;-73
2022/06/02 00:09:43;;;;;;;9.27;4.38;;;;;;;13.12;100.00;95576.78;5026602;28;20569;-73
2022/06/02 00:12:47;;;;;;;6.88;4.30;;;;;;;13.16;100.00;95572.50;5017748;28;20099;-73
2022/06/02 00:15:26;;;;;;;6.75;4.47;;;;;;;13.16;100.00;95583.09;5027944;28;20084;-73
2022/06/02 00:18:08;;;;;;;7.32;4.30;;;;;;;13.14;100.00;95583.34;5030308;28;20045;-73
2022/06/02 00:20:48;;;;;;;6.95;4.70;;;;;;;13.06;100.00;95577.91;5027880;28;20057;-73
2022/06/02 00:23:37;;;;;;;5.75;4.20;;;;;;;13.00;100.00;95588.53;5016447;28;20037;-73
2022/06/02 00:26:44;;;;;;;8.23;4.28;;;;;;;13.02;100.00;95587.47;5036851;28;20124;-73
2022/06/02 00:29:19;;;;;;;6.40;4.47;;;;;;;13.00;100.00;95591.19;5021037;28;20041;-73
2022/06/02 00:31:49;;;;;;;6.75;4.05;;;;;;;13.04;100.00;95606.47;5017432;28;20049;-73
2022/06/02 00:34:25;;;;;;;6.03;4.05;;;;;;;12.96;100.00;95600.75;5026342;28;20037;-73
2022/06/02 00:37:23;;;;;;;8.07;4.53;;;;;;;12.97;100.00;95607.59;5024856;28;20049;-73
2022/06/02 00:39:50;;;;;;;7.95;4.60;;;;;;;12.95;100.00;95620.28;5026549;28;20045;-73
2022/06/02 00:42:24;;;;;;;6.35;4.13;;;;;;;12.92;100.00;95610.28;5028957;28;20558;-74
2022/06/02 00:45:04;;;;;;;7.85;4.55;;;;;;;12.94;100.00;95617.94;5029401;28;20056;-73
2022/06/02 00:47:51;;;;;;;8.93;4.32;;;;;;;12.86;100.00;95613.25;5021040;28;20092;-73
2022/06/02 00:50:23;;;;;;;6.10;4.15;;;;;;;12.91;100.00;95608.72;5024209;28;20052;-73
2022/06/02 00:53:07;;;;;;;8.73;4.50;;;;;;;12.79;100.00;95616.25;5028234;28;20046;-73
2022/06/02 00:58:54;;;;;;;10.65;4.40;;;;;;;12.61;100.00;95615.91;5025235;28;20047;-72
2022/06/02 01:01:35;;;;;;;7.25;4.10;;;;;;;12.55;100.00;95617.00;5021183;28;20068;-72
2022/06/02 01:04:09;;;;;;;7.25;4.50;;;;;;;12.52;100.00;95622.84;5033054;28;20048;-72
2022/06/02 01:06:49;;;;;;;8.48;4.72;;;;;;;12.46;100.00;95624.75;5023199;28;20045;-73
2022/06/02 01:09:37;;;;;;;7.40;4.75;;;;;;;12.40;100.00;95622.44;5022931;28;20491;-73
2022/06/02 01:12:09;;;;;;;8.52;3.88;;;;;;;12.33;100.00;95627.25;5022862;28;20060;-72
2022/06/02 01:14:49;;;;;;;6.85;4.40;;;;;;;12.25;100.00;95628.63;5028597;28;20042;-73
2022/06/02 01:17:30;;;;;;;6.05;4.32;;;;;;;12.26;100.00;95630.19;5022232;28;20045;-73
2022/06/02 01:20:02;;;;;;;7.95;4.68;;;;;;;12.22;100.00;95635.22;5027278;28;20045;-73
2022/06/02 01:23:02;;;;;;;7.10;4.70;;;;;;;12.22;100.00;95632.59;5028972;28;20111;-73
2022/06/02 01:25:46;;;;;;;9.95;4.50;;;;;;;12.19;100.00;95641.06;5028122;28;20052;-73
2022/06/02 01:28:33;;;;;;;9.85;5.00;;;;;;;12.21;100.00;95638.94;5028542;28;20086;-73
2022/06/02 01:31:24;;;;;;;7.68;4.63;;;;;;;12.30;100.00;95632.00;5028450;28;20053;-73
2022/06/02 01:34:07;;;;;;;9.63;4.60;;;;;;;12.32;100.00;95633.59;5024726;28;20050;-73
2022/06/02 01:36:58;;;;;;;7.10;4.50;;;;;;;12.35;100.00;95627.75;5029193;28;20410;-73
2022/06/02 01:39:49;;;;;;;9.43;4.53;;;;;;;12.33;100.00;95632.53;5021059;28;20093;-73
2022/06/02 01:42:29;;;;;;;9.27;4.70;;;;;;;12.28;100.00;95628.88;5016248;28;20034;-73
2022/06/02 01:45:29;;;;;;;8.98;4.70;;;;;;;12.24;100.00;95627.03;5026172;28;20080;-73
2022/06/02 01:48:20;;;;;;;9.75;4.85;;;;;;;12.24;100.00;95622.56;5020847;28;20048;-73
2022/06/02 01:51:22;;;;;;;7.78;4.50;;;;;;;12.12;100.00;95620.28;5017500;28;20052;-73
2022/06/02 01:53:53;;;;;;;9.15;5.22;;;;;;;12.15;100.00;95618.94;5025317;28;20087;-73
2022/06/02 01:56:32;;;;;;;8.20;4.68;;;;;;;12.24;100.00;95617.28;5022729;28;20046;-74
2022/06/02 01:59:07;;;;;;;8.77;4.20;;;;;;;12.30;100.00;95613.53;5023679;28;20038;-73
2022/06/02 02:01:35;;;;;;;8.20;4.40;;;;;;;12.23;100.00;95615.72;5028603;28;20038;-73
2022/06/02 02:04:22;;;;;;;7.53;4.03;;;;;;;12.26;100.00;95614.38;5027759;28;20600;-74
2022/06/02 02:06:59;;;;;;;7.18;4.35;;;;;;;12.26;100.00;95615.16;5023134;28;20050;-73
2022/06/02 02:09:54;;;;;;;7.55;4.43;;;;;;;12.22;100.00;95619.41;5024294;28;20061;-73
2022/06/02 02:12:38;;;;;;;6.40;4.03;;;;;;;12.27;100.00;95616.72;5026449;28;20486;-73
2022/06/02 02:15:36;;;;;;;9.85;4.13;;;;;;;12.30;100.00;95621.44;5035721;28;20053;-73
2022/06/02 02:18:32;;;;;;;7.32;4.40;;;;;;;12.35;100.00;95619.84;5032667;28;20041;-73
2022/06/02 02:21:13;;;;;;;9.13;4.30;;;;;;;12.37;100.00;95625.63;5035480;28;20450;-73
2022/06/02 02:23:51;;;;;;;6.97;4.10;;;;;;;12.30;100.00;95632.00;5032626;28;20045;-73
2022/06/02 02:26:30;;;;;;;6.88;4.30;;;;;;;12.27;100.00;95637.84;5022544;28;20038;-73
2022/06/02 02:29:04;;;;;;;7.78;4.20;;;;;;;12.29;100.00;95635.69;5031081;28;20080;-73
2022/06/02 02:31:38;;;;;;;;;;;;;;;12.34;100.00;95636.72;5018214;28;20045;-73
2022/06/02 02:34:41;;;;;;;6.75;3.65;;;;;;;12.34;100.00;95628.81;5032144;28;19925;-73
2022/06/02 02:37:24;;;;;;;8.15;4.07;;;;;;;12.28;100.00;95623.59;5023879;28;20157;-73
2022/06/02 02:40:07;;;;;;;7.88;4.20;;;;;;;12.26;100.00;95623.06;5029474;28;20045;-73
2022/06/02 02:42:53;;;;;;;6.30;3.90;;;;;;;12.10;100.00;95624.25;5018303;28;20041;-73
2022/06/02 02:45:36;;;;;;;7.10;3.83;;;;;;;12.16;100.00;95620.50;5032698;28;20049;-73
2022/06/02 02:48:20;;;;;;;6.13;3.83;;;;;;;12.11;100.00;95623.19;5031735;28;20072;-73
2022/06/02 02:50:54;;;;;;;7.78;4.30;;;;;;;12.10;100.00;95622.41;5028994;28;20385;-73
2022/06/02 02:53:32;;;;;;;6.32;4.03;;;;;;;12.06;100.00;95628.50;5028968;28;20116;-73
2022/06/02 02:56:22;;;;;;;7.15;4.28;;;;;;;12.00;100.00;95626.97;5031867;28;20403;-69
2022/06/02 02:59:12;;;;;;;7.45;4.30;;;;;;;12.00;100.00;95634.91;5017308;28;20037;-70
2022/06/02 03:01:46;;;;;;;8.43;4.50;;;;;;;11.95;100.00;95636.50;5027428;28;20060;-70
2022/06/02 03:04:42;;;;;;;6.88;3.72;;;;;;;11.96;100.00;95637.28;5028766;28;20491;-70
2022/06/02 03:07:07;;;;;;;8.63;4.20;;;;;;;11.85;100.00;95636.53;5030171;28;20038;-70
2022/06/02 03:09:56;;;;;;;9.25;4.55;;;;;;;11.89;100.00;95627.00;5031284;28;20049;-71
2022/06/02 03:12:39;;;;;;;8.65;4.05;;;;;;;11.92;100.00;95631.75;5029490;28;20045;-71
2022/06/02 03:15:13;;;;;;;6.78;4.18;;;;;;;11.86;100.00;95638.09;5031416;28;20050;-70
2022/06/02 03:18:10;;;;;;;7.95;3.97;;;;;;;11.75;100.00;95639.22;5031272;28;20075;-71
2022/06/02 03:20:54;;;;;;;7.40;3.85;;;;;;;11.75;100.00;95647.13;5020639;28;20052;-71
2022/06/02 03:23:28;;;;;;;6.85;4.55;;;;;;;11.79;100.00;95648.97;5023787;28;20508;-71
2022/06/02 03:25:58;;;;;;;;;;;;;;;11.84;100.00;95649.97;5028850;28;20053;-71
2022/06/02 03:28:40;;;;;;;6.15;4.15;;;;;;;11.79;100.00;95648.97;5028908;28;19925;-72
2022/06/02 03:32:03;;;;;;;8.32;4.20;;;;;;;11.66;100.00;95644.28;5022633;28;20045;-72
2022/06/02 03:34:51;;;;;;;8.25;4.20;;;;;;;11.56;100.00;95642.50;4981826;28;20579;-72
2022/06/02 03:37:36;;;;;;;7.00;4.45;;;;;;;11.54;100.00;95657.78;4973392;28;20917;-72
2022/06/02 03:40:41;;;;;;;9.73;4.28;;;;;;;11.52;100.00;95653.84;5026386;28;20058;-72
2022/06/02 03:43:15;;;;;;;6.50;4.07;;;;;;;11.55;100.00;95640.13;5027892;28;20045;-72
2022/06/02 03:45:50;;;;;;;7.55;4.00;;;;;;;11.48;100.00;95647.53;5031171;28;20168;-72
2022/06/02 03:48:40;;;;;;;7.03;4.50;;;;;;;11.43;100.00;95645.72;5019931;28;20080;-72
2022/06/02 03:51:21;;;;;;;6.22;4.10;;;;;;;11.43;100.00;95657.06;5014176;28;20050;-71
2022/06/02 03:54:04;;;;;;;7.45;4.65;;;;;;;11.44;100.00;95660.47;5026476;28;20037;-71
2022/06/02 03:57:13;;;;;;;8.98;4.65;;;;;;;11.31;100.00;95664.50;5029450;28;20411;-71
2022/06/02 03:59:38;;;;;;;5.85;3.90;;;;;;;11.38;100.00;95664.22;5020577;28;20080;-71
2022/06/02 04:02:09;;;;;;;7.40;4.38;;;;;;;11.35;100.00;95675.25;5029107;28;20037;-71
2022/06/02 04:04:46;;;;;;;7.93;4.60;;;;;;;11.42;100.00;95675.75;5026700;28;20041;-71
2022/06/02 04:07:37;;;;;;;7.47;5.03;;;;;;;11.54;100.00;95670.19;5030237;28;20046;-72
2022/06/02 04:10:25;;;;;;;7.97;4.47;;;;;;;11.66;100.00;95665.38;5028023;28;20053;-72
2022/06/02 04:16:11;;;;;;;10.85;4.95;;;;;;;11.98;100.00;95668.66;5029894;28;20056;-71
2022/06/02 04:20:34;;;;;;;7.15;4.72;;;;;;;12.00;100.00;95664.69;5029218;28;20496;-71
2022/06/02 04:22:06;;;;;;;7.15;4.78;;;;;;;12.07;100.00;95669.66;5027318;28;20411;-71
2022/06/02 04:24:50;;;;;;;7.80;4.65;;;;;;;12.13;100.00;95673.84;5029817;28;20135;-71
2022/06/02 04:27:37;;;;;;;8.57;4.80;;;;;;;12.20;100.00;95690.13;5027392;28;20038;-71
2022/06/02 04:30:18;;;;;;;6.45;4.50;;;;;;;12.25;100.00;95687.44;5017891;28;20053;-71
2022/06/02 04:33:04;;;;;;;6.15;4.18;;;;;;;12.29;100.00;95685.06;5027957;28;20049;-72
2022/06/02 04:35:54;;;;;;;7.90;4.55;;;;;;;12.29;100.00;95677.91;5028975;28;20034;-72
2022/06/02 04:38:54;;;;;;;9.77;4.32;;;;;;;12.46;100.00;95688.09;5029514;28;20411;-72
2022/06/02 04:41:22;;;;;;;7.35;4.38;;;;;;;12.57;100.00;95682.72;5023834;28;20033;-72
2022/06/02 04:43:53;;;;;;;7.78;4.47;;;;;;;12.61;100.00;95699.59;5020070;28;20057;-72
2022/06/02 04:46:37;;;;;;;7.50;4.43;;;;;;;12.61;100.00;95695.09;5030072;28;20518;-71
2022/06/02 04:49:36;;;;;;;7.38;4.28;;;;;;;12.60;100.00;95693.53;5027303;28;21295;-72
2022/06/02 04:52:28;;;;;;;12.60;4.20;;;;;;;12.71;100.00;95693.44;5022496;28;20057;-72
2022/06/02 04:55:10;;;;;;;7.25;4.50;;;;;;;12.85;100.00;95699.63;5027946;28;20135;-72
2022/06/02 04:57:46;;;;;;;8.80;4.18;;;;;;;12.90;100.00;95701.44;5025299;28;20040;-72
2022/06/02 05:00:20;;;;;;;7.88;4.38;;;;;;;12.93;100.00;95695.59;5028783;28;20480;-73
2022/06/02 05:03:09;;;;;;;7.75;4.57;;;;;;;12.96;100.00;95698.47;5028082;28;20498;-73
2022/06/02 05:05:40;;;;;;;7.07;4.38;;;;;;;13.04;100.00;95694.41;5025325;28;20520;-73
2022/06/02 05:08:14;;;;;;;8.25;4.70;;;;;;;13.17;100.00;95696.41;5029186;28;20071;-72
2022/06/02 05:10:56;;;;;;;8.95;4.53;;;;;;;13.34;100.00;95697.81;5015724;28;20045;-73
2022/06/02 05:13:50;;;;;;;10.95;4.07;;;;;;;13.42;100.00;95702.50;5030389;28;20030;-73
2022/06/02 05:16:42;;;;;;;9.45;4.00;;;;;;;13.43;100.00;95705.94;4994116;28;20530;-73
2022/06/02 05:19:27;;;;;;;10.68;4.28;;;;;;;13.44;100.00;95710.16;5005273;28;20051;-73
2022/06/02 05:21:59;;;;;;;10.30;4.63;;;;;;;13.47;100.00;95712.22;5023541;28;20041;-73
2022/06/02 05:24:42;;;;;;;8.73;4.25;;;;;;;13.65;100.00;95700.13;5029280;28;20045;-74
2022/06/02 05:27:47;;;;;;;6.80;4.57;;;;;;;13.73;100.00;95701.34;5028558;28;20041;-72
2022/06/02 05:30:35;;;;;;;7.80;4.32;;;;;;;13.71;100.00;95703.50;5039587;28;20060;-72
2022/06/02 05:33:19;;;;;;;7.47;4.45;;;;;;;13.77;100.00;95707.66;5026973;28;20037;-72
2022/06/02 05:36:35;;;;;;;10.70;4.35;;;;;;;13.81;100.00;95704.13;5029432;28;20076;-73
2022/06/02 05:39:17;;;;;;;9.32;4.80;;;;;;;13.90;100.00;95717.50;5018780;28;21139;-72
2022/06/02 05:42:10;;;;;;;12.85;4.70;;;;;;;14.07;100.00;95722.31;5026047;28;20045;-73
2022/06/02 05:45:18;;;;;;;11.27;5.00;;;;;;;14.01;100.00;95728.75;5028572;28;20048;-73
2022/06/02 05:48:07;;;;;;;8.20;4.70;;;;;;;14.31;100.00;95726.72;5020147;28;20068;-73
2022/06/02 05:50:41;;;;;;;8.68;4.45;;;;;;;14.34;100.00;95721.66;5017834;28;20057;-73
2022/06/02 05:53:25;;;;;;;11.02;4.90;;;;;;;14.23;100.00;95730.06;5028201;28;20041;-73
2022/06/02 05:56:06;;;;;;;14.65;5.20;;;;;;;14.34;100.00;95731.47;5029296;28;20048;-72
2022/06/02 05:58:53;;;;;;;11.23;5.30;;;;;;;14.32;100.00;95718.53;5022406;28;20517;-72
2022/06/02 06:01:32;;;;;;;8.82;5.30;;;;;;;14.36;100.00;95718.72;5024277;28;20400;-75
2022/06/02 06:04:19;;;;;;;9.27;5.40;;;;;;;14.37;100.00;95726.38;5024818;28;20081;-74
2022/06/02 06:06:53;;;;;;;9.55;4.78;;;;;;;14.32;100.00;95729.13;5028353;28;20041;-73
2022/06/02 06:09:32;;;;;;;10.30;5.25;;;;;;;14.22;100.00;95723.94;5023779;28;20045;-74
2022/06/02 06:12:31;;;;;;;8.93;5.50;;;;;;;14.33;100.00;95720.09;5027321;28;20103;-74
2022/06/02 06:15:09;;;;;;;12.45;5.95;;;;;;;14.60;100.00;95723.91;5025645;28;20069;-73
2022/06/02 06:17:55;;;;;;;11.82;5.70;;;;;;;14.68;100.00;95711.91;5026415;28;20099;-75
2022/06/02 06:20:42;;;;;;;12.18;6.05;;;;;;;14.79;98.72;95704.59;5027037;28;20038;-73
2022/06/02 06:23:20;;;;;;;11.30;5.95;;;;;;;14.70;100.00;95713.19;5026312;28;20041;-72
2022/06/02 06:26:07;;;;;;;10.00;5.95;;;;;;;14.40;100.00;95718.94;5024828;28;20526;-72
2022/06/02 06:28:40;;;;;;;13.02;6.32;;;;;;;14.41;100.00;95728.44;5024651;28;20041;-74
2022/06/02 06:31:36;;;;;;;10.95;6.50;;;;;;;14.39;100.00;95728.72;5027865;28;20052;-72
2022/06/02 06:34:25;;;;;;;13.43;6.72;;;;;;;14.40;100.00;95724.25;5026413;28;20046;-72
2022/06/02 06:37:35;;;;;;;11.23;6.85;;;;;;;14.44;100.00;95735.81;5009315;28;20125;-72
2022/06/02 06:40:28;;;;;;;12.65;6.90;;;;;;;14.48;100.00;95739.47;5017301;28;20505;-72
2022/06/02 06:43:28;;;;;;;10.68;6.65;;;;;;;14.66;100.00;95743.97;5025510;28;20542;-72
2022/06/02 06:46:12;;;;;;;11.00;6.65;;;;;;;14.81;100.00;95744.81;4994634;28;20061;-73
2022/06/02 06:48:45;;;;;;;14.32;7.60;;;;;;;14.70;98.09;95744.97;5013897;28;20033;-71
2022/06/02 06:51:26;;;;;;;12.65;6.78;;;;;;;14.88;98.07;95742.56;5021842;28;20041;-73
2022/06/02 06:54:23;;;;;;;13.75;6.70;;;;;;;15.04;97.45;95743.88;5024306;28;20131;-73
2022/06/02 06:56:58;;;;;;;10.32;6.45;;;;;;;15.02;98.55;95751.34;5027652;28;20053;-72
2022/06/02 06:59:48;;;;;;;12.23;7.13;;;;;;;15.18;98.81;95743.13;5029110;28;20061;-75
2022/06/02 07:02:41;;;;;;;13.65;7.00;;;;;;;15.21;98.55;95731.91;5011301;28;20060;-73
2022/06/02 07:05:26;;;;;;;12.07;6.35;;;;;;;15.39;93.63;95744.31;5024535;28;20407;-73
2022/06/02 07:08:29;;;;;;;11.30;6.03;;;;;;;15.56;93.24;95748.25;5038112;28;20042;-77
2022/06/02 07:11:03;;;;;;;12.75;7.30;;;;;;;15.32;91.72;95749.22;5045430;28;20752;-75
2022/06/02 07:13:31;;;;;;;;;;;;;;;15.10;95.67;95751.72;5027085;28;20055;-76
2022/06/02 07:16:28;;;;;;;14.93;6.47;;;;;;;15.16;96.01;95751.38;5027980;28;20022;-74
2022/06/02 07:19:17;;;;;;;12.98;6.53;;;;;;;15.21;93.76;95758.44;5027000;28;20099;-76
2022/06/02 07:21:53;;;;;;;11.77;6.53;;;;;;;15.39;95.23;95749.63;5028710;28;20037;-75
2022/06/02 07:24:29;;;;;;;16.98;8.05;;;;;;;15.49;94.29;95758.47;5032362;28;20052;-75
2022/06/02 07:27:06;;;;;;;13.13;8.20;;;;;;;15.57;93.66;95763.88;5030712;28;20159;-76
2022/06/02 07:30:03;;;;;;;14.32;7.13;;;;;;;15.73;92.43;95753.75;5025112;28;20439;-75
2022/06/02 07:32:52;;;;;;;13.50;7.35;;;;;;;15.82;90.71;95745.13;5033031;28;20046;-77
2022/06/02 07:35:35;;;;;;;11.85;7.20;;;;;;;15.71;91.63;95750.59;5032871;28;20048;-76
2022/06/02 07:38:14;;;;;;;14.73;7.30;;;;;;;15.72;89.48;95738.91;5031246;28;20034;-76
2022/06/02 07:40:58;;;;;;;15.48;7.40;;;;;;;15.72;90.26;95746.88;5032416;28;20086;-76
2022/06/02 07:43:39;;;;;;;14.73;6.80;;;;;;;15.77;90.73;95744.13;5018841;28;20260;-80
2022/06/02 07:46:30;;;;;;;12.48;6.60;;;;;;;15.84;89.68;95748.28;5033259;28;20037;-77
2022/06/02 07:49:23;;;;;;;16.73;7.45;;;;;;;15.87;91.49;95752.97;5029239;28;20045;-77
2022/06/02 07:52:14;;;;;;;9.55;6.35;;;;;;;16.37;88.77;95750.31;5029551;28;20046;-74
2022/06/02 07:54:48;;;;;;;15.63;7.45;;;;;;;16.23;85.77;95760.19;5030413;28;20632;-75
2022/06/02 07:57:48;;;;;;;10.85;6.90;;;;;;;16.33;85.61;95759.94;5025223;28;20037;-74
2022/06/02 08:00:21;;;;;;;10.77;6.40;;;;;;;16.59;84.89;95762.03;5030090;28;20044;-76
2022/06/02 08:03:21;;;;;;;11.80;6.25;;;;;;;16.88;85.85;95760.84;5025944;28;20068;-75
2022/06/02 08:06:02;;;;;;;11.68;7.13;;;;;;;16.79;82.96;95755.44;5011811;28;20045;-75
2022/06/02 08:08:44;;;;;;;11.80;7.18;;;;;;;16.40;84.37;95755.00;5013148;28;20488;-75
2022/06/02 08:11:31;;;;;;;18.02;7.40;;;;;;;16.38;83.25;95757.19;5020875;28;20049;-74
2022/06/02 08:14:32;;;;;;;12.35;7.40;;;;;;;16.39;83.89;95758.78;5029513;28;20491;-74
2022/06/02 08:17:20;;;;;;;12.68;7.15;;;;;;;16.67;82.88;95753.34;5002852;28;20053;-74
2022/06/02 08:20:00;;;;;;;11.73;6.53;;;;;;;16.73;86.73;95754.78;5025481;28;20041;-78
2022/06/02 08:23:14;;;;;;;10.85;6.40;;;;;;;16.95;83.54;95758.56;5023965;28;20037;-73
2022/06/02 08:26:10;;;;;;;9.63;6.57;;;;;;;17.55;79.59;95767.16;5017399;28;20057;-75
2022/06/02 08:29:12;;;;;;;11.52;6.53;;;;;;;17.31;80.18;95773.59;5012557;28;20077;-76
2022/06/02 08:31:46;;;;;;;12.38;7.25;;;;;;;17.07;80.69;95772.09;5021419;28;20048;-73
2022/06/02 08:34:21;;;;;;;;;;;;;;;17.06;80.33;95777.72;5030756;28;20068;-73
2022/06/02 08:37:20;;;;;;;13.25;7.35;;;;;;;17.48;77.79;95775.56;5024704;28;19921;-72
2022/06/02 08:40:08;;;;;;;16.75;7.22;;;;;;;17.57;76.73;95762.28;5029836;28;20069;-72
2022/06/02 08:43:01;;;;;;;11.52;6.47;;;;;;;17.72;77.62;95769.84;5022589;28;20049;-73
2022/06/02 08:46:01;;;;;;;11.80;6.70;;;;;;;17.92;77.50;95762.44;5020701;28;20061;-73
2022/06/02 08:48:50;;;;;;;13.27;7.25;;;;;;;18.02;75.66;95772.78;5028391;28;20037;-73
2022/06/02 08:51:50;;;;;;;14.32;7.38;;;;;;;18.04;76.44;95775.91;5022450;28;20633;-73
2022/06/02 08:54:44;;;;;;;12.88;6.82;;;;;;;18.10;74.11;95764.03;5022466;28;20042;-73
2022/06/02 08:57:32;;;;;;;13.63;6.72;;;;;;;18.14;72.87;95775.63;5030492;28;20132;-73
2022/06/02 09:00:22;;;;;;;12.40;6.60;;;;;;;18.68;72.33;95771.91;5029622;28;20045;-73
2022/06/02 09:03:29;;;;;;;13.65;6.78;;;;;;;19.06;72.41;95771.22;5027338;28;20558;-73
2022/06/02 09:06:24;;;;;;;11.82;6.70;;;;;;;19.45;71.76;95782.75;5029001;28;20412;-72
2022/06/02 09:09:02;;;;;;;13.50;6.60;;;;;;;19.23;69.63;95780.31;4977905;28;20054;-72
2022/06/02 09:11:55;;;;;;;12.32;5.43;;;;;;;18.77;68.90;95770.00;5028383;28;20041;-73
2022/06/02 09:14:41;;;;;;;11.30;5.60;;;;;;;18.56;71.07;95774.41;5021741;28;20064;-71
2022/06/02 09:17:29;;;;;;;13.48;6.03;;;;;;;18.47;72.20;95777.84;5026314;28;20030;-73
2022/06/02 09:20:33;;;;;;;10.15;5.90;;;;;;;18.49;70.38;95781.00;5018984;28;20492;-72
2022/06/02 09:23:29;;;;;;;8.85;5.60;;;;;;;19.07;70.65;95778.16;4987232;28;20053;-73
2022/06/02 09:26:13;;;;;;;10.98;5.80;;;;;;;19.11;69.66;95784.41;5028380;28;20140;-73
2022/06/02 09:28:45;;;;;;;11.73;5.57;;;;;;;19.14;69.48;95778.44;5028554;28;20099;-73
2022/06/02 09:31:36;;;;;;;12.15;5.60;;;;;;;19.24;68.96;95789.88;5027597;28;20165;-73
2022/06/02 09:34:13;;;;;;;12.57;5.93;;;;;;;18.98;67.51;95791.50;5039228;28;20041;-73
2022/06/02 09:36:58;;;;;;;10.00;5.68;;;;;;;19.23;68.41;95785.66;5026223;28;20052;-72
2022/06/02 09:39:45;;;;;;;9.68;5.45;;;;;;;19.20;67.83;95787.06;5029780;28;20045;-72
2022/06/02 09:42:51;;;;;;;9.88;6.30;;;;;;;18.84;64.04;95790.84;5028562;28;20041;-73
2022/06/02 09:45:44;;;;;;;9.45;5.22;;;;;;;19.40;64.06;95790.94;5019817;28;20049;-73
2022/06/02 09:48:30;;;;;;;10.45;5.07;;;;;;;19.30;66.36;95791.28;5028120;28;20038;-72
2022/06/02 09:51:22;;;;;;;8.80;5.47;;;;;;;19.89;61.38;95791.38;5021019;28;20053;-72
2022/06/02 09:54:20;;;;;;;10.82;5.90;;;;;;;19.81;63.25;95792.22;5029046;28;20131;-72
2022/06/02 10:00:26;;;;;;;12.15;7.47;;;;;;;19.72;67.43;95776.22;5027013;28;20164;-72
2022/06/02 10:03:04;;;;;;;13.38;6.55;;;;;;;20.07;67.87;95780.63;5026953;28;20415;-72
2022/06/02 10:05:48;;;;;;;9.43;6.63;;;;;;;20.21;66.54;95781.16;5027279;28;20123;-72
2022/06/02 10:08:26;;;;;;;14.25;7.80;;;;;;;20.56;66.53;95780.91;5027160;28;20044;-72
2022/06/02 10:10:58;;;;;;;17.50;7.93;;;;;;;20.63;69.07;95780.38;5029206;28;20060;-72
2022/06/02 10:13:58;;;;;;;12.70;7.65;;;;;;;21.08;64.02;95773.53;5022184;28;20045;-72
2022/06/02 10:16:47;;;;;;;13.52;7.03;;;;;;;20.78;65.48;95771.00;5018600;28;20044;-72
2022/06/02 10:19:40;;;;;;;17.92;7.43;;;;;;;20.97;66.28;95772.41;5025422;28;20115;-72
2022/06/02 10:22:35;;;;;;;15.25;7.13;;;;;;;21.21;64.56;95767.09;5024609;28;20037;-76
2022/06/02 10:25:23;;;;;;;15.05;7.00;;;;;;;20.79;64.14;95771.75;5027677;28;20053;-78
2022/06/02 10:27:54;;;;;;;11.95;6.10;;;;;;;21.32;60.25;95772.81;5020298;28;20414;-75
2022/06/02 10:30:48;;;;;;;10.85;6.45;;;;;;;21.23;59.31;95780.94;5022351;28;20473;-73
2022/06/02 10:33:23;;;;;;;9.90;5.70;;;;;;;21.57;60.42;95768.28;5032603;28;20143;-74
2022/06/02 10:36:35;;;;;;;14.50;8.15;;;;;;;21.46;61.66;95767.13;5028411;28;20072;-73
2022/06/02 10:39:35;;;;;;;13.07;8.13;;;;;;;20.98;63.81;95771.28;5030642;28;20415;-74
2022/06/02 10:42:23;;;;;;;16.15;8.75;;;;;;;20.99;63.21;95772.84;5024678;28;20057;-73
2022/06/02 10:45:17;;;;;;;17.10;8.88;;;;;;;21.10;61.58;95776.66;5031174;28;20132;-73
2022/06/02 10:47:55;;;;;;;18.35;10.07;;;;;;;20.81;62.76;95781.03;5029992;28;20041;-75
2022/06/02 10:51:06;;;;;;;17.58;10.32;;;;;;;20.83;63.80;95778.81;5031640;28;20053;-76
2022/06/02 10:53:56;;;;;;;24.30;11.70;;;;;;;20.73;62.94;95779.19;5032903;28;20048;-74
2022/06/02 10:56:54;;;;;;;16.17;9.40;;;;;;;20.78;62.67;95781.69;5033225;28;20491;-76
2022/06/02 10:59:50;;;;;;;14.02;8.68;;;;;;;20.78;64.54;95779.00;5032839;28;20041;-75
2022/06/02 11:02:50;;;;;;;16.10;10.38;;;;;;;20.85;63.35;95775.81;5032971;28;20109;-75
2022/06/02 11:05:25;;;;;;;27.13;12.90;;;;;;;20.50;64.10;95776.84;5031557;28;20037;-76
2022/06/02 11:08:17;;;;;;;18.55;10.98;;;;;;;20.38;62.65;95774.88;5028039;28;20165;-75
2022/06/02 11:11:02;;;;;;;32.80;10.82;;;;;;;20.59;64.73;95777.56;5027735;28;20104;-75
2022/06/02 11:13:30;;;;;;;16.80;10.00;;;;;;;20.97;62.64;95772.41;5036647;28;20033;-75
2022/06/02 11:16:26;;;;;;;17.95;10.80;;;;;;;21.51;61.94;95764.28;5037517;28;20525;-73
2022/06/02 11:19:31;;;;;;;18.00;9.57;;;;;;;21.76;57.88;95765.06;5031812;28;20053;-73
2022/06/02 11:22:22;;;;;;;16.90;9.27;;;;;;;22.43;56.60;95750.59;5024757;28;20049;-76
2022/06/02 11:25:14;;;;;;;11.43;7.25;;;;;;;22.55;54.96;95755.91;5035412;28;20041;-73
2022/06/02 11:27:58;;;;;;;9.35;6.65;;;;;;;23.43;54.28;95743.66;5028275;28;20045;-78
2022/06/02 11:30:42;;;;;;;17.33;6.80;;;;;;;21.98;56.07;95745.06;5035336;28;20041;-75
2022/06/02 11:33:13;;;;;;;15.82;8.55;;;;;;;22.11;58.54;95745.03;5036484;28;20074;-73
2022/06/02 11:35:57;;;;;;;14.05;7.63;;;;;;;22.73;58.64;95744.88;5055678;28;20046;-74
2022/06/02 11:38:42;;;;;;;;;;;;;;;22.77;55.14;95729.69;5065032;28;20033;-73
2022/06/02 11:41:19;;;;;;;11.85;8.00;;;;;;;21.80;59.89;95738.41;5048721;28;19932;-77
2022/06/02 11:44:03;;;;;;;15.35;7.43;;;;;;;21.60;59.92;95735.50;5055881;28;20059;-72
2022/06/02 11:47:06;;;;;;;13.88;7.25;;;;;;;21.63;61.67;95740.16;5054018;28;20120;-73
2022/06/02 11:50:09;;;;;;;14.68;8.85;;;;;;;21.31;59.26;95733.00;5035090;28;20100;-74
2022/06/02 11:52:40;;;;;;;12.85;7.18;;;;;;;21.03;60.73;95738.97;5053521;28;20029;-73
2022/06/02 11:55:20;;;;;;;13.63;6.65;;;;;;;21.28;60.41;95729.88;5057943;28;20037;-75
2022/06/02 11:58:04;;;;;;;12.45;8.15;;;;;;;21.15;59.33;95730.97;5058266;28;20044;-74
2022/06/02 12:00:48;;;;;;;12.40;7.18;;;;;;;21.77;58.52;95729.13;5045418;28;20039;-75
2022/06/02 12:03:28;;;;;;;12.63;7.60;;;;;;;22.61;57.70;95727.75;5058701;28;20033;-71
2022/06/02 12:05:57;;;;;;;13.43;7.47;;;;;;;22.29;55.15;95735.63;5056751;28;20036;-72
2022/06/02 12:08:41;;;;;;;13.13;7.40;;;;;;;22.90;54.94;95728.50;5042659;28;20033;-74
2022/06/02 12:11:25;;;;;;;13.68;7.53;;;;;;;22.63;54.72;95730.84;5044878;28;20045;-72
2022/06/02 12:13:56;;;;;;;11.23;8.07;;;;;;;22.19;55.11;95730.75;5030668;28;20068;-73
2022/06/02 12:16:49;;;;;;;9.70;6.75;;;;;;;22.12;57.96;95728.66;5030891;28;20049;-73
2022/06/02 12:19:54;;;;;;;12.23;6.90;;;;;;;21.97;58.97;95732.78;5029141;28;20049;-74
2022/06/02 12:22:38;;;;;;;;;;;;;;;21.25;60.30;95741.25;5028662;28;20037;-73
2022/06/02 12:25:15;;;;;;;13.48;6.32;;;;;;;21.22;60.57;95735.75;5022156;28;20105;-73
2022/06/02 12:28:00;;;;;;;9.15;6.50;;;;;;;21.15;61.00;95736.31;5022046;28;20045;-73
2022/06/02 12:30:28;;;;;;;;;;;;;;;21.00;61.38;95744.97;5029185;28;20041;-73
2022/06/02 12:33:17;;;;;;;12.77;6.30;;;;;;;20.97;62.43;95745.66;5028608;28;19929;-72
2022/06/02 12:36:07;;;;;;;10.30;5.80;;;;;;;21.21;59.62;95745.69;5017819;28;20054;-71
2022/06/02 12:39:17;;;;;;;13.38;6.05;;;;;;;20.97;59.96;95757.13;5018612;28;20053;-75
2022/06/02 12:41:53;;;;;;;11.32;5.55;;;;;;;20.74;62.93;95762.81;5024975;28;20121;-73
2022/06/02 12:44:40;;;;;;;11.32;6.35;;;;;;;20.58;61.90;95767.19;5022236;28;20049;-77
2022/06/02 12:47:31;;;;;;;10.52;5.80;;;;;;;20.43;64.16;95765.91;5031089;28;20124;-75
2022/06/02 12:50:15;;;;;;;10.40;5.72;;;;;;;20.29;62.08;95766.16;5029420;28;20045;-77
2022/06/02 12:53:37;;;;;;;11.63;5.18;;;;;;;20.08;68.76;95772.28;5029461;28;20061;-74
2022/06/02 12:56:39;;;;;;;8.52;5.85;;;;;;;19.92;71.12;95757.13;4982402;28;20047;-73
2022/06/02 12:59:28;;;;;;;9.63;6.00;;;;;;;19.99;71.14;95741.38;4984102;28;20077;-73
2022/06/02 13:02:16;;;;;;;10.82;6.20;;;;;;;19.86;71.69;95733.28;5015456;28;20064;-73
2022/06/02 13:05:07;;;;;;;16.42;6.38;;;;;;;20.04;75.97;95733.16;5028826;28;20034;-74